sensor_id;sensor_type;location;lat;lon;timestamp;P1;durP1;ratioP1;P2;durP2;ratioP2
12908;SDS011;6522;49.622;6.126;2024-01-06T00:02:04;8.45;;;6.00;;
12908;SDS011;6522;49.622;6.126;2024-01-06T00:04:50;11.65;;;6.07;;
12908;SDS011;6522;49.622;6.126;2024-01-06T00:07:37;6.22;;;5.60;;
12908;SDS011;6522;49.622;6.126;2024-01-06T00:10:24;8.75;;;5.50;;
12908;SDS011;6522;49.622;6.126;2024-01-06T00:13:11;7.32;;;4.97;;
12908;SDS011;6522;49.622;6.126;2024-01-06T00:15:57;6.20;;;5.60;;
12908;SDS011;6522;49.622;6.126;2024-01-06T00:18:44;5.22;;;4.72;;
12908;SDS011;6522;49.622;6.126;2024-01-06T00:21:30;8.13;;;5.90;;
12908;SDS011;6522;49.622;6.126;2024-01-06T00:24:17;7.22;;;4.65;;
12908;SDS011;6522;49.622;6.126;2024-01-06T00:27:04;10.35;;;5.85;;
12908;SDS011;6522;49.622;6.126;2024-01-06T00:29:51;8.57;;;5.60;;
12908;SDS011;6522;49.622;6.126;2024-01-06T00:32:38;4.62;;;4.22;;
12908;SDS011;6522;49.622;6.126;2024-01-06T00:35:24;7.20;;;5.15;;
12908;SDS011;6522;49.622;6.126;2024-01-06T00:38:11;9.27;;;5.90;;
12908;SDS011;6522;49.622;6.126;2024-01-06T00:40:58;8.70;;;6.20;;
12908;SDS011;6522;49.622;6.126;2024-01-06T00:43:45;6.43;;;5.10;;
12908;SDS011;6522;49.622;6.126;2024-01-06T00:46:32;8.38;;;5.90;;
12908;SDS011;6522;49.622;6.126;2024-01-06T00:49:18;7.18;;;6.05;;
12908;SDS011;6522;49.622;6.126;2024-01-06T00:52:05;5.78;;;5.28;;
12908;SDS011;6522;49.622;6.126;2024-01-06T00:54:52;6.90;;;5.18;;
12908;SDS011;6522;49.622;6.126;2024-01-06T00:57:38;4.78;;;4.37;;
12908;SDS011;6522;49.622;6.126;2024-01-06T01:00:25;9.55;;;5.25;;
12908;SDS011;6522;49.622;6.126;2024-01-06T01:03:12;8.60;;;5.25;;
12908;SDS011;6522;49.622;6.126;2024-01-06T01:05:58;7.37;;;5.25;;
12908;SDS011;6522;49.622;6.126;2024-01-06T01:08:45;5.50;;;4.77;;
12908;SDS011;6522;49.622;6.126;2024-01-06T01:11:32;7.45;;;4.62;;
12908;SDS011;6522;49.622;6.126;2024-01-06T01:14:19;5.63;;;4.93;;
12908;SDS011;6522;49.622;6.126;2024-01-06T01:17:05;6.15;;;5.28;;
12908;SDS011;6522;49.622;6.126;2024-01-06T01:19:52;5.57;;;4.90;;
12908;SDS011;6522;49.622;6.126;2024-01-06T01:22:39;6.93;;;6.32;;
12908;SDS011;6522;49.622;6.126;2024-01-06T01:25:26;6.85;;;5.80;;
12908;SDS011;6522;49.622;6.126;2024-01-06T01:28:13;6.95;;;5.87;;
12908;SDS011;6522;49.622;6.126;2024-01-06T01:31:00;7.45;;;6.75;;
12908;SDS011;6522;49.622;6.126;2024-01-06T01:33:46;5.68;;;5.10;;
12908;SDS011;6522;49.622;6.126;2024-01-06T01:36:33;9.70;;;6.62;;
12908;SDS011;6522;49.622;6.126;2024-01-06T01:39:20;9.27;;;5.35;;
12908;SDS011;6522;49.622;6.126;2024-01-06T01:42:06;6.95;;;6.15;;
12908;SDS011;6522;49.622;6.126;2024-01-06T01:44:54;7.57;;;5.90;;
12908;SDS011;6522;49.622;6.126;2024-01-06T01:47:40;6.00;;;5.40;;
12908;SDS011;6522;49.622;6.126;2024-01-06T01:50:27;9.38;;;6.12;;
12908;SDS011;6522;49.622;6.126;2024-01-06T01:53:14;7.35;;;6.43;;
12908;SDS011;6522;49.622;6.126;2024-01-06T01:56:01;7.17;;;5.97;;
12908;SDS011;6522;49.622;6.126;2024-01-06T01:58:48;7.03;;;6.32;;
12908;SDS011;6522;49.622;6.126;2024-01-06T02:01:35;6.37;;;5.57;;
12908;SDS011;6522;49.622;6.126;2024-01-06T02:04:22;8.63;;;5.68;;
12908;SDS011;6522;49.622;6.126;2024-01-06T02:07:08;8.65;;;6.15;;
12908;SDS011;6522;49.622;6.126;2024-01-06T02:09:55;7.28;;;6.28;;
12908;SDS011;6522;49.622;6.126;2024-01-06T02:12:42;6.35;;;5.70;;
12908;SDS011;6522;49.622;6.126;2024-01-06T02:15:29;6.18;;;5.57;;
12908;SDS011;6522;49.622;6.126;2024-01-06T02:18:16;6.40;;;5.25;;
12908;SDS011;6522;49.622;6.126;2024-01-06T02:21:03;7.60;;;6.80;;
12908;SDS011;6522;49.622;6.126;2024-01-06T02:23:50;8.55;;;6.35;;
12908;SDS011;6522;49.622;6.126;2024-01-06T02:26:36;9.00;;;6.20;;
12908;SDS011;6522;49.622;6.126;2024-01-06T02:29:23;7.75;;;6.95;;
12908;SDS011;6522;49.622;6.126;2024-01-06T02:32:10;7.78;;;5.53;;
12908;SDS011;6522;49.622;6.126;2024-01-06T02:34:56;8.00;;;6.05;;
12908;SDS011;6522;49.622;6.126;2024-01-06T02:37:43;9.05;;;6.82;;
12908;SDS011;6522;49.622;6.126;2024-01-06T02:40:30;9.05;;;6.75;;
12908;SDS011;6522;49.622;6.126;2024-01-06T02:43:17;8.05;;;6.20;;
12908;SDS011;6522;49.622;6.126;2024-01-06T02:46:04;10.20;;;6.37;;
12908;SDS011;6522;49.622;6.126;2024-01-06T02:48:51;9.13;;;6.90;;
12908;SDS011;6522;49.622;6.126;2024-01-06T02:51:37;7.95;;;6.25;;
12908;SDS011;6522;49.622;6.126;2024-01-06T02:54:24;8.38;;;6.80;;
12908;SDS011;6522;49.622;6.126;2024-01-06T02:57:11;8.10;;;7.30;;
12908;SDS011;6522;49.622;6.126;2024-01-06T02:59:57;8.35;;;6.97;;
12908;SDS011;6522;49.622;6.126;2024-01-06T03:02:44;9.43;;;8.43;;
12908;SDS011;6522;49.622;6.126;2024-01-06T03:05:31;8.57;;;6.28;;
12908;SDS011;6522;49.622;6.126;2024-01-06T03:08:17;9.25;;;6.68;;
12908;SDS011;6522;49.622;6.126;2024-01-06T03:11:04;10.10;;;7.17;;
12908;SDS011;6522;49.622;6.126;2024-01-06T03:13:51;10.63;;;7.28;;
12908;SDS011;6522;49.622;6.126;2024-01-06T03:16:38;8.85;;;6.70;;
12908;SDS011;6522;49.622;6.126;2024-01-06T03:19:24;13.77;;;8.10;;
12908;SDS011;6522;49.622;6.126;2024-01-06T03:22:11;8.48;;;7.28;;
12908;SDS011;6522;49.622;6.126;2024-01-06T03:24:58;8.85;;;7.95;;
12908;SDS011;6522;49.622;6.126;2024-01-06T03:27:44;8.07;;;5.75;;
12908;SDS011;6522;49.622;6.126;2024-01-06T03:30:31;8.82;;;6.30;;
12908;SDS011;6522;49.622;6.126;2024-01-06T03:33:18;9.50;;;7.53;;
12908;SDS011;6522;49.622;6.126;2024-01-06T03:36:07;7.10;;;6.40;;
12908;SDS011;6522;49.622;6.126;2024-01-06T03:38:54;10.98;;;7.53;;
12908;SDS011;6522;49.622;6.126;2024-01-06T03:41:42;10.35;;;6.75;;
12908;SDS011;6522;49.622;6.126;2024-01-06T03:44:28;7.78;;;6.32;;
12908;SDS011;6522;49.622;6.126;2024-01-06T03:47:15;7.20;;;6.50;;
12908;SDS011;6522;49.622;6.126;2024-01-06T03:50:02;8.30;;;6.43;;
12908;SDS011;6522;49.622;6.126;2024-01-06T03:52:48;7.93;;;6.10;;
12908;SDS011;6522;49.622;6.126;2024-01-06T03:55:35;6.40;;;5.80;;
12908;SDS011;6522;49.622;6.126;2024-01-06T03:58:22;10.48;;;5.95;;
12908;SDS011;6522;49.622;6.126;2024-01-06T04:01:09;8.98;;;5.90;;
12908;SDS011;6522;49.622;6.126;2024-01-06T04:03:55;9.52;;;6.15;;
12908;SDS011;6522;49.622;6.126;2024-01-06T04:06:42;6.80;;;5.93;;
12908;SDS011;6522;49.622;6.126;2024-01-06T04:09:29;10.00;;;6.62;;
12908;SDS011;6522;49.622;6.126;2024-01-06T04:12:16;8.18;;;6.37;;
12908;SDS011;6522;49.622;6.126;2024-01-06T04:15:03;6.87;;;6.07;;
12908;SDS011;6522;49.622;6.126;2024-01-06T04:17:50;6.57;;;5.80;;
12908;SDS011;6522;49.622;6.126;2024-01-06T04:20:36;7.72;;;5.20;;
12908;SDS011;6522;49.622;6.126;2024-01-06T04:23:23;6.65;;;6.05;;
12908;SDS011;6522;49.622;6.126;2024-01-06T04:26:10;7.50;;;5.75;;
12908;SDS011;6522;49.622;6.126;2024-01-06T04:28:56;6.40;;;5.80;;
12908;SDS011;6522;49.622;6.126;2024-01-06T04:31:43;7.20;;;5.95;;
12908;SDS011;6522;49.622;6.126;2024-01-06T04:34:30;6.95;;;6.25;;
12908;SDS011;6522;49.622;6.126;2024-01-06T04:37:17;6.00;;;4.80;;
12908;SDS011;6522;49.622;6.126;2024-01-06T04:40:04;7.68;;;6.85;;
12908;SDS011;6522;49.622;6.126;2024-01-06T04:42:51;6.50;;;5.70;;
12908;SDS011;6522;49.622;6.126;2024-01-06T04:45:38;5.78;;;5.28;;
12908;SDS011;6522;49.622;6.126;2024-01-06T04:48:24;9.50;;;6.10;;
12908;SDS011;6522;49.622;6.126;2024-01-06T04:51:11;8.87;;;6.00;;
12908;SDS011;6522;49.622;6.126;2024-01-06T04:53:57;12.23;;;6.07;;
12908;SDS011;6522;49.622;6.126;2024-01-06T04:56:44;8.30;;;6.20;;
12908;SDS011;6522;49.622;6.126;2024-01-06T04:59:30;7.25;;;6.55;;
12908;SDS011;6522;49.622;6.126;2024-01-06T05:02:17;6.22;;;5.57;;
12908;SDS011;6522;49.622;6.126;2024-01-06T05:05:04;5.82;;;5.20;;
12908;SDS011;6522;49.622;6.126;2024-01-06T05:07:51;5.90;;;5.30;;
12908;SDS011;6522;49.622;6.126;2024-01-06T05:10:38;5.97;;;5.30;;
12908;SDS011;6522;49.622;6.126;2024-01-06T05:13:25;9.85;;;6.12;;
12908;SDS011;6522;49.622;6.126;2024-01-06T05:16:12;7.30;;;6.60;;
12908;SDS011;6522;49.622;6.126;2024-01-06T05:18:59;7.87;;;5.68;;
12908;SDS011;6522;49.622;6.126;2024-01-06T05:21:46;8.15;;;6.00;;
12908;SDS011;6522;49.622;6.126;2024-01-06T05:24:32;7.03;;;6.32;;
12908;SDS011;6522;49.622;6.126;2024-01-06T05:27:19;7.03;;;6.25;;
12908;SDS011;6522;49.622;6.126;2024-01-06T05:30:06;8.00;;;7.03;;
12908;SDS011;6522;49.622;6.126;2024-01-06T05:32:53;8.07;;;6.70;;
12908;SDS011;6522;49.622;6.126;2024-01-06T05:35:40;5.78;;;4.87;;
12908;SDS011;6522;49.622;6.126;2024-01-06T05:38:26;5.90;;;5.30;;
12908;SDS011;6522;49.622;6.126;2024-01-06T05:41:13;9.93;;;6.25;;
12908;SDS011;6522;49.622;6.126;2024-01-06T05:44:00;7.32;;;6.50;;
12908;SDS011;6522;49.622;6.126;2024-01-06T05:46:46;7.00;;;6.10;;
12908;SDS011;6522;49.622;6.126;2024-01-06T05:49:34;6.50;;;5.87;;
12908;SDS011;6522;49.622;6.126;2024-01-06T05:52:21;6.37;;;5.10;;
12908;SDS011;6522;49.622;6.126;2024-01-06T05:55:08;6.82;;;5.90;;
12908;SDS011;6522;49.622;6.126;2024-01-06T05:57:54;6.25;;;5.60;;
12908;SDS011;6522;49.622;6.126;2024-01-06T06:00:41;6.50;;;5.90;;
12908;SDS011;6522;49.622;6.126;2024-01-06T06:03:27;6.90;;;6.12;;
12908;SDS011;6522;49.622;6.126;2024-01-06T06:06:14;6.20;;;5.10;;
12908;SDS011;6522;49.622;6.126;2024-01-06T06:09:01;6.82;;;6.10;;
12908;SDS011;6522;49.622;6.126;2024-01-06T06:11:48;6.40;;;4.95;;
12908;SDS011;6522;49.622;6.126;2024-01-06T06:14:35;5.30;;;4.80;;
12908;SDS011;6522;49.622;6.126;2024-01-06T06:17:22;5.65;;;4.90;;
12908;SDS011;6522;49.622;6.126;2024-01-06T06:20:08;6.37;;;5.78;;
12908;SDS011;6522;49.622;6.126;2024-01-06T06:22:55;7.62;;;5.97;;
12908;SDS011;6522;49.622;6.126;2024-01-06T06:25:42;7.30;;;5.43;;
12908;SDS011;6522;49.622;6.126;2024-01-06T06:28:29;8.95;;;5.35;;
12908;SDS011;6522;49.622;6.126;2024-01-06T06:31:16;6.30;;;5.70;;
12908;SDS011;6522;49.622;6.126;2024-01-06T06:34:02;5.55;;;5.05;;
12908;SDS011;6522;49.622;6.126;2024-01-06T06:36:49;8.10;;;7.30;;
12908;SDS011;6522;49.622;6.126;2024-01-06T06:39:36;6.90;;;4.97;;
12908;SDS011;6522;49.622;6.126;2024-01-06T06:42:22;5.85;;;5.18;;
12908;SDS011;6522;49.622;6.126;2024-01-06T06:45:09;5.87;;;5.30;;
12908;SDS011;6522;49.622;6.126;2024-01-06T06:47:55;5.47;;;4.97;;
12908;SDS011;6522;49.622;6.126;2024-01-06T06:50:42;6.22;;;5.30;;
12908;SDS011;6522;49.622;6.126;2024-01-06T06:53:29;7.10;;;5.28;;
12908;SDS011;6522;49.622;6.126;2024-01-06T06:56:16;5.87;;;5.00;;
12908;SDS011;6522;49.622;6.126;2024-01-06T06:59:03;6.07;;;5.30;;
12908;SDS011;6522;49.622;6.126;2024-01-06T07:01:49;6.00;;;5.40;;
12908;SDS011;6522;49.622;6.126;2024-01-06T07:04:36;6.32;;;5.60;;
12908;SDS011;6522;49.622;6.126;2024-01-06T07:07:22;8.90;;;5.30;;
12908;SDS011;6522;49.622;6.126;2024-01-06T07:10:09;5.43;;;4.62;;
12908;SDS011;6522;49.622;6.126;2024-01-06T07:12:56;7.85;;;6.87;;
12908;SDS011;6522;49.622;6.126;2024-01-06T07:15:43;6.62;;;5.22;;
12908;SDS011;6522;49.622;6.126;2024-01-06T07:18:29;5.62;;;5.00;;
12908;SDS011;6522;49.622;6.126;2024-01-06T07:21:16;5.37;;;4.75;;
12908;SDS011;6522;49.622;6.126;2024-01-06T07:24:03;4.65;;;4.07;;
12908;SDS011;6522;49.622;6.126;2024-01-06T07:26:50;5.70;;;5.05;;
12908;SDS011;6522;49.622;6.126;2024-01-06T07:29:37;5.57;;;4.80;;
12908;SDS011;6522;49.622;6.126;2024-01-06T07:32:24;5.60;;;4.72;;
12908;SDS011;6522;49.622;6.126;2024-01-06T07:35:10;5.20;;;4.70;;
12908;SDS011;6522;49.622;6.126;2024-01-06T07:37:57;7.05;;;4.10;;
12908;SDS011;6522;49.622;6.126;2024-01-06T07:40:43;5.00;;;4.50;;
12908;SDS011;6522;49.622;6.126;2024-01-06T07:43:30;4.60;;;4.20;;
12908;SDS011;6522;49.622;6.126;2024-01-06T07:46:17;4.40;;;4.00;;
12908;SDS011;6522;49.622;6.126;2024-01-06T07:49:04;4.55;;;4.15;;
12908;SDS011;6522;49.622;6.126;2024-01-06T07:51:51;6.00;;;4.12;;
12908;SDS011;6522;49.622;6.126;2024-01-06T07:54:37;4.20;;;3.90;;
12908;SDS011;6522;49.622;6.126;2024-01-06T07:57:25;4.07;;;3.78;;
12908;SDS011;6522;49.622;6.126;2024-01-06T08:00:11;4.47;;;3.17;;
12908;SDS011;6522;49.622;6.126;2024-01-06T08:02:59;5.05;;;4.55;;
12908;SDS011;6522;49.622;6.126;2024-01-06T08:05:45;4.75;;;3.97;;
12908;SDS011;6522;49.622;6.126;2024-01-06T08:08:33;5.57;;;3.87;;
12908;SDS011;6522;49.622;6.126;2024-01-06T08:11:19;3.50;;;3.20;;
12908;SDS011;6522;49.622;6.126;2024-01-06T08:14:06;4.28;;;3.70;;
12908;SDS011;6522;49.622;6.126;2024-01-06T08:16:53;3.97;;;3.67;;
12908;SDS011;6522;49.622;6.126;2024-01-06T08:19:40;4.57;;;4.12;;
12908;SDS011;6522;49.622;6.126;2024-01-06T08:22:27;3.70;;;3.03;;
12908;SDS011;6522;49.622;6.126;2024-01-06T08:25:14;5.15;;;4.03;;
12908;SDS011;6522;49.622;6.126;2024-01-06T08:28:00;3.90;;;3.47;;
12908;SDS011;6522;49.622;6.126;2024-01-06T08:30:47;4.07;;;3.78;;
12908;SDS011;6522;49.622;6.126;2024-01-06T08:33:34;4.90;;;4.45;;
12908;SDS011;6522;49.622;6.126;2024-01-06T08:36:20;4.37;;;3.70;;
12908;SDS011;6522;49.622;6.126;2024-01-06T08:39:07;4.53;;;3.90;;
12908;SDS011;6522;49.622;6.126;2024-01-06T08:41:54;4.65;;;4.22;;
12908;SDS011;6522;49.622;6.126;2024-01-06T08:44:41;4.93;;;4.43;;
12908;SDS011;6522;49.622;6.126;2024-01-06T08:47:28;9.95;;;4.68;;
12908;SDS011;6522;49.622;6.126;2024-01-06T08:50:15;4.75;;;4.20;;
12908;SDS011;6522;49.622;6.126;2024-01-06T08:53:02;4.30;;;3.90;;
12908;SDS011;6522;49.622;6.126;2024-01-06T08:55:49;5.43;;;3.90;;
12908;SDS011;6522;49.622;6.126;2024-01-06T08:58:35;4.55;;;4.12;;
12908;SDS011;6522;49.622;6.126;2024-01-06T09:01:22;4.95;;;4.05;;
12908;SDS011;6522;49.622;6.126;2024-01-06T09:04:09;4.80;;;4.10;;
12908;SDS011;6522;49.622;6.126;2024-01-06T09:06:55;4.53;;;4.12;;
12908;SDS011;6522;49.622;6.126;2024-01-06T09:09:43;4.72;;;4.32;;
12908;SDS011;6522;49.622;6.126;2024-01-06T09:12:29;5.12;;;4.72;;
12908;SDS011;6522;49.622;6.126;2024-01-06T09:15:15;4.65;;;4.25;;
12908;SDS011;6522;49.622;6.126;2024-01-06T09:18:02;4.60;;;4.20;;
12908;SDS011;6522;49.622;6.126;2024-01-06T09:20:49;4.20;;;3.58;;
12908;SDS011;6522;49.622;6.126;2024-01-06T09:23:36;5.50;;;4.45;;
12908;SDS011;6522;49.622;6.126;2024-01-06T09:26:22;3.58;;;3.28;;
12908;SDS011;6522;49.622;6.126;2024-01-06T09:29:09;5.40;;;3.67;;
12908;SDS011;6522;49.622;6.126;2024-01-06T09:31:56;4.00;;;3.60;;
12908;SDS011;6522;49.622;6.126;2024-01-06T09:34:43;3.90;;;3.28;;
12908;SDS011;6522;49.622;6.126;2024-01-06T09:37:29;3.72;;;3.30;;
12908;SDS011;6522;49.622;6.126;2024-01-06T09:40:26;3.85;;;3.55;;
12908;SDS011;6522;49.622;6.126;2024-01-06T09:43:03;4.70;;;3.87;;
12908;SDS011;6522;49.622;6.126;2024-01-06T09:45:58;4.07;;;3.67;;
12908;SDS011;6522;49.622;6.126;2024-01-06T09:48:43;4.70;;;4.30;;
12908;SDS011;6522;49.622;6.126;2024-01-06T09:51:30;4.00;;;3.60;;
12908;SDS011;6522;49.622;6.126;2024-01-06T09:54:16;3.75;;;3.45;;
12908;SDS011;6522;49.622;6.126;2024-01-06T09:57:03;5.10;;;3.55;;
12908;SDS011;6522;49.622;6.126;2024-01-06T09:59:50;5.00;;;4.50;;
12908;SDS011;6522;49.622;6.126;2024-01-06T10:02:37;7.80;;;4.70;;
12908;SDS011;6522;49.622;6.126;2024-01-06T10:05:24;5.15;;;4.55;;
12908;SDS011;6522;49.622;6.126;2024-01-06T10:08:10;4.35;;;3.60;;
12908;SDS011;6522;49.622;6.126;2024-01-06T10:10:57;4.53;;;4.12;;
12908;SDS011;6522;49.622;6.126;2024-01-06T10:13:44;4.72;;;4.30;;
12908;SDS011;6522;49.622;6.126;2024-01-06T10:16:31;5.20;;;4.70;;
12908;SDS011;6522;49.622;6.126;2024-01-06T10:19:17;4.32;;;3.95;;
12908;SDS011;6522;49.622;6.126;2024-01-06T10:22:04;4.30;;;3.37;;
12908;SDS011;6522;49.622;6.126;2024-01-06T10:24:51;5.45;;;4.32;;
12908;SDS011;6522;49.622;6.126;2024-01-06T10:27:37;2.92;;;2.72;;
12908;SDS011;6522;49.622;6.126;2024-01-06T10:30:24;2.30;;;1.98;;
12908;SDS011;6522;49.622;6.126;2024-01-06T10:33:11;4.15;;;3.85;;
12908;SDS011;6522;49.622;6.126;2024-01-06T10:35:58;4.10;;;1.90;;
12908;SDS011;6522;49.622;6.126;2024-01-06T10:38:45;3.17;;;2.97;;
12908;SDS011;6522;49.622;6.126;2024-01-06T10:41:31;3.45;;;3.25;;
12908;SDS011;6522;49.622;6.126;2024-01-06T10:44:18;3.28;;;3.08;;
12908;SDS011;6522;49.622;6.126;2024-01-06T10:47:06;3.08;;;2.87;;
12908;SDS011;6522;49.622;6.126;2024-01-06T10:49:52;2.20;;;1.90;;
12908;SDS011;6522;49.622;6.126;2024-01-06T10:52:38;4.28;;;3.97;;
12908;SDS011;6522;49.622;6.126;2024-01-06T10:55:25;3.92;;;3.72;;
12908;SDS011;6522;49.622;6.126;2024-01-06T10:58:12;3.30;;;3.10;;
12908;SDS011;6522;49.622;6.126;2024-01-06T11:00:58;3.47;;;3.28;;
12908;SDS011;6522;49.622;6.126;2024-01-06T11:03:45;3.90;;;3.70;;
12908;SDS011;6522;49.622;6.126;2024-01-06T11:06:32;4.57;;;4.28;;
12908;SDS011;6522;49.622;6.126;2024-01-06T11:09:27;2.65;;;2.45;;
12908;SDS011;6522;49.622;6.126;2024-01-06T11:12:12;4.70;;;4.40;;
12908;SDS011;6522;49.622;6.126;2024-01-06T11:14:58;4.35;;;4.03;;
12908;SDS011;6522;49.622;6.126;2024-01-06T11:20:35;7.97;;;3.83;;
12908;SDS011;6522;49.622;6.126;2024-01-06T11:23:22;4.70;;;4.40;;
12908;SDS011;6522;49.622;6.126;2024-01-06T11:26:08;5.00;;;4.75;;
12908;SDS011;6522;49.622;6.126;2024-01-06T11:28:56;4.50;;;4.20;;
12908;SDS011;6522;49.622;6.126;2024-01-06T11:31:42;4.65;;;4.35;;
12908;SDS011;6522;49.622;6.126;2024-01-06T11:34:29;5.35;;;4.85;;
12908;SDS011;6522;49.622;6.126;2024-01-06T11:37:28;3.72;;;2.95;;
12908;SDS011;6522;49.622;6.126;2024-01-06T11:40:03;4.60;;;4.30;;
12908;SDS011;6522;49.622;6.126;2024-01-06T11:43:00;4.90;;;4.60;;
12908;SDS011;6522;49.622;6.126;2024-01-06T11:45:46;4.12;;;2.80;;
12908;SDS011;6522;49.622;6.126;2024-01-06T11:48:32;4.47;;;4.07;;
12908;SDS011;6522;49.622;6.126;2024-01-06T11:51:19;4.55;;;4.25;;
12908;SDS011;6522;49.622;6.126;2024-01-06T11:54:06;4.20;;;3.90;;
12908;SDS011;6522;49.622;6.126;2024-01-06T11:56:53;3.00;;;2.70;;
12908;SDS011;6522;49.622;6.126;2024-01-06T11:59:39;5.03;;;4.62;;
12908;SDS011;6522;49.622;6.126;2024-01-06T12:02:26;4.43;;;4.12;;
12908;SDS011;6522;49.622;6.126;2024-01-06T12:05:14;3.80;;;3.50;;
12908;SDS011;6522;49.622;6.126;2024-01-06T12:08:00;4.57;;;4.18;;
12908;SDS011;6522;49.622;6.126;2024-01-06T12:10:46;4.85;;;4.45;;
12908;SDS011;6522;49.622;6.126;2024-01-06T12:13:33;4.85;;;4.35;;
12908;SDS011;6522;49.622;6.126;2024-01-06T12:16:20;4.72;;;4.20;;
12908;SDS011;6522;49.622;6.126;2024-01-06T12:19:07;6.22;;;5.62;;
12908;SDS011;6522;49.622;6.126;2024-01-06T12:21:53;5.53;;;4.85;;
12908;SDS011;6522;49.622;6.126;2024-01-06T12:24:41;4.70;;;3.70;;
12908;SDS011;6522;49.622;6.126;2024-01-06T12:27:27;6.75;;;6.07;;
12908;SDS011;6522;49.622;6.126;2024-01-06T12:30:14;6.15;;;5.72;;
12908;SDS011;6522;49.622;6.126;2024-01-06T12:33:00;6.05;;;5.55;;
12908;SDS011;6522;49.622;6.126;2024-01-06T12:35:47;6.12;;;5.62;;
12908;SDS011;6522;49.622;6.126;2024-01-06T12:38:34;4.45;;;3.72;;
12908;SDS011;6522;49.622;6.126;2024-01-06T12:41:20;6.18;;;5.72;;
12908;SDS011;6522;49.622;6.126;2024-01-06T12:44:07;6.50;;;5.93;;
12908;SDS011;6522;49.622;6.126;2024-01-06T12:46:54;6.82;;;6.22;;
12908;SDS011;6522;49.622;6.126;2024-01-06T12:49:41;6.35;;;5.85;;
12908;SDS011;6522;49.622;6.126;2024-01-06T12:52:28;5.90;;;5.35;;
12908;SDS011;6522;49.622;6.126;2024-01-06T12:55:14;6.70;;;6.20;;
12908;SDS011;6522;49.622;6.126;2024-01-06T12:58:01;7.45;;;6.85;;
12908;SDS011;6522;49.622;6.126;2024-01-06T13:00:48;6.60;;;6.10;;
12908;SDS011;6522;49.622;6.126;2024-01-06T13:03:35;8.20;;;7.60;;
12908;SDS011;6522;49.622;6.126;2024-01-06T13:06:22;8.63;;;7.75;;
12908;SDS011;6522;49.622;6.126;2024-01-06T13:09:09;7.97;;;7.28;;
12908;SDS011;6522;49.622;6.126;2024-01-06T13:11:56;8.35;;;7.75;;
12908;SDS011;6522;49.622;6.126;2024-01-06T13:14:43;8.70;;;8.10;;
12908;SDS011;6522;49.622;6.126;2024-01-06T13:17:29;8.95;;;8.32;;
12908;SDS011;6522;49.622;6.126;2024-01-06T13:20:16;9.63;;;8.82;;
12908;SDS011;6522;49.622;6.126;2024-01-06T13:23:02;8.45;;;7.75;;
12908;SDS011;6522;49.622;6.126;2024-01-06T13:25:49;6.70;;;6.10;;
12908;SDS011;6522;49.622;6.126;2024-01-06T13:28:36;8.40;;;7.80;;
12908;SDS011;6522;49.622;6.126;2024-01-06T13:31:22;8.00;;;7.45;;
12908;SDS011;6522;49.622;6.126;2024-01-06T13:34:09;7.82;;;7.32;;
12908;SDS011;6522;49.622;6.126;2024-01-06T13:36:56;8.20;;;7.60;;
12908;SDS011;6522;49.622;6.126;2024-01-06T13:39:42;8.43;;;7.82;;
12908;SDS011;6522;49.622;6.126;2024-01-06T13:42:29;8.48;;;7.87;;
12908;SDS011;6522;49.622;6.126;2024-01-06T13:45:16;8.60;;;7.97;;
12908;SDS011;6522;49.622;6.126;2024-01-06T13:48:03;7.80;;;7.30;;
12908;SDS011;6522;49.622;6.126;2024-01-06T13:50:50;7.62;;;7.12;;
12908;SDS011;6522;49.622;6.126;2024-01-06T13:53:36;8.68;;;7.90;;
12908;SDS011;6522;49.622;6.126;2024-01-06T13:56:24;9.13;;;8.32;;
12908;SDS011;6522;49.622;6.126;2024-01-06T13:59:11;8.80;;;8.00;;
12908;SDS011;6522;49.622;6.126;2024-01-06T14:01:57;8.55;;;7.87;;
12908;SDS011;6522;49.622;6.126;2024-01-06T14:04:44;7.68;;;7.18;;
12908;SDS011;6522;49.622;6.126;2024-01-06T14:07:31;6.47;;;5.87;;
12908;SDS011;6522;49.622;6.126;2024-01-06T14:10:17;9.20;;;8.60;;
12908;SDS011;6522;49.622;6.126;2024-01-06T14:13:04;9.00;;;8.30;;
12908;SDS011;6522;49.622;6.126;2024-01-06T14:15:51;9.15;;;8.40;;
12908;SDS011;6522;49.622;6.126;2024-01-06T14:18:38;6.43;;;5.80;;
12908;SDS011;6522;49.622;6.126;2024-01-06T14:21:25;8.93;;;8.32;;
12908;SDS011;6522;49.622;6.126;2024-01-06T14:24:12;7.60;;;6.62;;
12908;SDS011;6522;49.622;6.126;2024-01-06T14:26:59;7.07;;;6.47;;
12908;SDS011;6522;49.622;6.126;2024-01-06T14:29:46;10.90;;;10.10;;
12908;SDS011;6522;49.622;6.126;2024-01-06T14:32:33;9.35;;;8.65;;
12908;SDS011;6522;49.622;6.126;2024-01-06T14:35:19;7.18;;;6.57;;
12908;SDS011;6522;49.622;6.126;2024-01-06T14:38:06;10.10;;;9.50;;
12908;SDS011;6522;49.622;6.126;2024-01-06T14:40:53;9.30;;;8.70;;
12908;SDS011;6522;49.622;6.126;2024-01-06T14:43:39;8.98;;;8.38;;
12908;SDS011;6522;49.622;6.126;2024-01-06T14:46:26;9.95;;;9.05;;
12908;SDS011;6522;49.622;6.126;2024-01-06T14:49:13;8.05;;;7.37;;
12908;SDS011;6522;49.622;6.126;2024-01-06T14:52:00;5.53;;;5.03;;
12908;SDS011;6522;49.622;6.126;2024-01-06T14:54:46;8.40;;;7.80;;
12908;SDS011;6522;49.622;6.126;2024-01-06T14:57:33;8.20;;;7.70;;
12908;SDS011;6522;49.622;6.126;2024-01-06T15:00:20;7.43;;;7.00;;
12908;SDS011;6522;49.622;6.126;2024-01-06T15:03:06;7.00;;;6.60;;
12908;SDS011;6522;49.622;6.126;2024-01-06T15:05:53;7.18;;;6.68;;
12908;SDS011;6522;49.622;6.126;2024-01-06T15:08:40;7.37;;;6.87;;
12908;SDS011;6522;49.622;6.126;2024-01-06T15:11:27;5.50;;;5.15;;
12908;SDS011;6522;49.622;6.126;2024-01-06T15:14:14;7.07;;;6.53;;
12908;SDS011;6522;49.622;6.126;2024-01-06T15:17:00;5.40;;;5.00;;
12908;SDS011;6522;49.622;6.126;2024-01-06T15:19:47;6.32;;;5.90;;
12908;SDS011;6522;49.622;6.126;2024-01-06T15:22:34;6.00;;;5.57;;
12908;SDS011;6522;49.622;6.126;2024-01-06T15:25:20;5.95;;;5.35;;
12908;SDS011;6522;49.622;6.126;2024-01-06T15:28:07;6.00;;;5.60;;
12908;SDS011;6522;49.622;6.126;2024-01-06T15:30:53;5.15;;;4.78;;
12908;SDS011;6522;49.622;6.126;2024-01-06T15:33:40;5.18;;;4.80;;
12908;SDS011;6522;49.622;6.126;2024-01-06T15:36:27;5.55;;;5.05;;
12908;SDS011;6522;49.622;6.126;2024-01-06T15:39:13;5.45;;;5.05;;
12908;SDS011;6522;49.622;6.126;2024-01-06T15:42:00;6.18;;;5.57;;
12908;SDS011;6522;49.622;6.126;2024-01-06T15:44:47;5.10;;;4.70;;
12908;SDS011;6522;49.622;6.126;2024-01-06T15:47:34;4.40;;;4.00;;
12908;SDS011;6522;49.622;6.126;2024-01-06T15:50:21;4.60;;;4.15;;
12908;SDS011;6522;49.622;6.126;2024-01-06T15:53:07;4.75;;;4.18;;
12908;SDS011;6522;49.622;6.126;2024-01-06T15:55:54;5.55;;;5.05;;
12908;SDS011;6522;49.622;6.126;2024-01-06T15:58:41;6.07;;;3.58;;
12908;SDS011;6522;49.622;6.126;2024-01-06T16:01:27;5.70;;;5.20;;
12908;SDS011;6522;49.622;6.126;2024-01-06T16:04:14;5.20;;;4.80;;
12908;SDS011;6522;49.622;6.126;2024-01-06T16:07:01;4.53;;;4.12;;
12908;SDS011;6522;49.622;6.126;2024-01-06T16:09:47;4.60;;;4.20;;
12908;SDS011;6522;49.622;6.126;2024-01-06T16:12:34;4.57;;;4.18;;
12908;SDS011;6522;49.622;6.126;2024-01-06T16:15:21;4.87;;;4.47;;
12908;SDS011;6522;49.622;6.126;2024-01-06T16:18:07;6.45;;;4.60;;
12908;SDS011;6522;49.622;6.126;2024-01-06T16:20:54;4.10;;;3.70;;
12908;SDS011;6522;49.622;6.126;2024-01-06T16:23:41;6.25;;;4.57;;
12908;SDS011;6522;49.622;6.126;2024-01-06T16:26:28;5.50;;;5.10;;
12908;SDS011;6522;49.622;6.126;2024-01-06T16:29:14;7.18;;;4.90;;
12908;SDS011;6522;49.622;6.126;2024-01-06T16:32:01;4.70;;;4.30;;
12908;SDS011;6522;49.622;6.126;2024-01-06T16:34:48;6.55;;;4.40;;
12908;SDS011;6522;49.622;6.126;2024-01-06T16:37:35;5.57;;;4.87;;
12908;SDS011;6522;49.622;6.126;2024-01-06T16:40:21;4.43;;;4.03;;
12908;SDS011;6522;49.622;6.126;2024-01-06T16:43:08;4.65;;;3.90;;
12908;SDS011;6522;49.622;6.126;2024-01-06T16:45:55;4.87;;;4.47;;
12908;SDS011;6522;49.622;6.126;2024-01-06T16:48:41;4.97;;;4.57;;
12908;SDS011;6522;49.622;6.126;2024-01-06T16:51:28;5.53;;;5.03;;
12908;SDS011;6522;49.622;6.126;2024-01-06T16:54:15;6.28;;;5.75;;
12908;SDS011;6522;49.622;6.126;2024-01-06T16:57:01;5.95;;;5.00;;
12908;SDS011;6522;49.622;6.126;2024-01-06T16:59:48;5.70;;;5.20;;
12908;SDS011;6522;49.622;6.126;2024-01-06T17:02:35;5.90;;;5.40;;